QTR24W OKKK-OTHH
Flight info
| Callsign | QTR24W |
|---|---|
| Flight time | 0h 59m |
| Altitude | 27000 |
| Route | BOXIK B416 IMDOX P975 LONOS L703 HAYYA |
| Aircraft | A35K/H-SDE2E3GHIJ3J4J5LM1ORWXY/LB1D1 |
Departure
| Time | 2026-05-05 10:54 |
|---|---|
| Airport | Kuwait International Airport (OKKK) |
Arrival
| Time | 2026-05-05 11:54 |
|---|---|
| Airport | Hamad International Airport (OTHH) |
| Time | Latitude | Longitude | Altitude | Speed | Heading |
|---|---|---|---|---|---|
| 2026-05-05 10:23 | 29.23862 | 47.97083 | 176 ft | 0 kts | 21° |
| 2026-05-05 10:43 | 29.23852 | 47.97079 | 176 ft | 4 kts | 18° |
| 2026-05-05 10:43 | 29.23827 | 47.97070 | 176 ft | 4 kts | 14° |
| 2026-05-05 10:43 | 29.23802 | 47.97064 | 176 ft | 4 kts | 3° |
| 2026-05-05 10:44 | 29.23779 | 47.97066 | 176 ft | 3 kts | 342° |
| 2026-05-05 10:44 | 29.23762 | 47.97075 | 176 ft | 2 kts | 332° |
| 2026-05-05 10:44 | 29.23752 | 47.97081 | 176 ft | 2 kts | 332° |
| 2026-05-05 10:44 | 29.23747 | 47.97083 | 176 ft | 0 kts | 333° |
| 2026-05-05 10:46 | 29.23755 | 47.97079 | 176 ft | 3 kts | 334° |
| 2026-05-05 10:46 | 29.23778 | 47.97063 | 176 ft | 5 kts | 322° |
| 2026-05-05 10:46 | 29.23796 | 47.97023 | 176 ft | 6 kts | 283° |
| 2026-05-05 10:46 | 29.23794 | 47.96986 | 176 ft | 8 kts | 258° |
| 2026-05-05 10:47 | 29.23772 | 47.96922 | 176 ft | 10 kts | 246° |
| 2026-05-05 10:47 | 29.23739 | 47.96840 | 175 ft | 12 kts | 244° |
| 2026-05-05 10:47 | 29.23698 | 47.96743 | 175 ft | 13 kts | 244° |
| 2026-05-05 10:47 | 29.23664 | 47.96662 | 173 ft | 10 kts | 245° |
| 2026-05-05 10:48 | 29.23692 | 47.96594 | 172 ft | 12 kts | 326° |
| 2026-05-05 10:48 | 29.23774 | 47.96549 | 171 ft | 15 kts | 334° |
| 2026-05-05 10:48 | 29.23874 | 47.96495 | 171 ft | 17 kts | 335° |
| 2026-05-05 10:48 | 29.23986 | 47.96435 | 170 ft | 17 kts | 335° |
| 2026-05-05 10:49 | 29.24090 | 47.96379 | 170 ft | 14 kts | 335° |
| 2026-05-05 10:49 | 29.24152 | 47.96336 | 169 ft | 11 kts | 304° |
| 2026-05-05 10:49 | 29.24144 | 47.96254 | 167 ft | 8 kts | 244° |
| 2026-05-05 10:49 | 29.24140 | 47.96246 | 167 ft | 0 kts | 244° |
| 2026-05-05 10:50 | 29.24129 | 47.96223 | 166 ft | 6 kts | 239° |
| 2026-05-05 10:50 | 29.24087 | 47.96193 | 165 ft | 9 kts | 195° |
| 2026-05-05 10:51 | 29.24020 | 47.96178 | 165 ft | 11 kts | 182° |
| 2026-05-05 10:51 | 29.23978 | 47.96193 | 164 ft | 0 kts | 156° |
| 2026-05-05 10:53 | 29.23978 | 47.96194 | 164 ft | 0 kts | 156° |
| 2026-05-05 10:53 | 29.23959 | 47.96203 | 164 ft | 8 kts | 156° |
| 2026-05-05 10:53 | 29.23774 | 47.96299 | 165 ft | 62 kts | 154° |
| 2026-05-05 10:54 | 29.23177 | 47.96617 | 170 ft | 127 kts | 155° |
| 2026-05-05 10:54 | 29.22198 | 47.97128 | 430 ft | 160 kts | 155° |
| 2026-05-05 10:54 | 29.21230 | 47.97681 | 1303 ft | 155 kts | 146° |
| 2026-05-05 10:54 | 29.20630 | 47.98711 | 1973 ft | 159 kts | 109° |
| 2026-05-05 10:55 | 29.20243 | 47.99896 | 2578 ft | 165 kts | 119° |
| 2026-05-05 10:55 | 29.19672 | 48.01133 | 2908 ft | 187 kts | 122° |
| 2026-05-05 10:55 | 29.18997 | 48.02488 | 3146 ft | 210 kts | 123° |
| 2026-05-05 10:55 | 29.18224 | 48.04020 | 3369 ft | 236 kts | 123° |
| 2026-05-05 10:56 | 29.17379 | 48.05702 | 3906 ft | 249 kts | 123° |
| 2026-05-05 10:56 | 29.16510 | 48.07455 | 4655 ft | 257 kts | 123° |
| 2026-05-05 10:56 | 29.15607 | 48.09269 | 5341 ft | 265 kts | 124° |
| 2026-05-05 10:56 | 29.14682 | 48.11132 | 6003 ft | 273 kts | 124° |
| 2026-05-05 10:57 | 29.13730 | 48.13032 | 6741 ft | 277 kts | 124° |
| 2026-05-05 10:57 | 29.12777 | 48.14935 | 7498 ft | 281 kts | 124° |
| 2026-05-05 10:57 | 29.11800 | 48.16890 | 8263 ft | 285 kts | 124° |
| 2026-05-05 10:57 | 29.10810 | 48.18870 | 9065 ft | 290 kts | 124° |
| 2026-05-05 10:58 | 29.09805 | 48.20878 | 9852 ft | 294 kts | 124° |
| 2026-05-05 10:58 | 29.08760 | 48.22962 | 10336 ft | 312 kts | 124° |
| 2026-05-05 10:58 | 29.07638 | 48.25191 | 10684 ft | 332 kts | 124° |
| 2026-05-05 10:58 | 29.06456 | 48.27545 | 11028 ft | 351 kts | 124° |
| 2026-05-05 10:59 | 29.05213 | 48.30024 | 11405 ft | 367 kts | 123° |
| 2026-05-05 10:59 | 29.03927 | 48.32592 | 11927 ft | 377 kts | 123° |
| 2026-05-05 10:59 | 29.02611 | 48.35221 | 12492 ft | 385 kts | 124° |
| 2026-05-05 10:59 | 29.01265 | 48.37904 | 13073 ft | 392 kts | 124° |
| 2026-05-05 11:00 | 28.99896 | 48.40631 | 13678 ft | 399 kts | 124° |
| 2026-05-05 11:00 | 28.98507 | 48.43395 | 14235 ft | 404 kts | 124° |
| 2026-05-05 11:00 | 28.97100 | 48.46192 | 14805 ft | 409 kts | 124° |
| 2026-05-05 11:00 | 28.95690 | 48.48994 | 15393 ft | 414 kts | 124° |
| 2026-05-05 11:01 | 28.94247 | 48.51858 | 15983 ft | 419 kts | 124° |
| 2026-05-05 11:01 | 28.92788 | 48.54752 | 16569 ft | 424 kts | 124° |
| 2026-05-05 11:01 | 28.91305 | 48.57690 | 17165 ft | 429 kts | 124° |
| 2026-05-05 11:01 | 28.89807 | 48.60658 | 17791 ft | 433 kts | 124° |
| 2026-05-05 11:02 | 28.88292 | 48.63656 | 18368 ft | 438 kts | 124° |
| 2026-05-05 11:02 | 28.86766 | 48.66674 | 18975 ft | 441 kts | 124° |
| 2026-05-05 11:02 | 28.85230 | 48.69711 | 19611 ft | 443 kts | 124° |
| 2026-05-05 11:02 | 28.83681 | 48.72770 | 20238 ft | 447 kts | 124° |
| 2026-05-05 11:03 | 28.82147 | 48.75798 | 20855 ft | 450 kts | 124° |
| 2026-05-05 11:03 | 28.80573 | 48.78900 | 21480 ft | 453 kts | 124° |
| 2026-05-05 11:03 | 28.79001 | 48.82029 | 22117 ft | 456 kts | 124° |
| 2026-05-05 11:03 | 28.77448 | 48.85184 | 22752 ft | 460 kts | 123° |
| 2026-05-05 11:04 | 28.75886 | 48.88388 | 23378 ft | 463 kts | 123° |
| 2026-05-05 11:04 | 28.74317 | 48.91611 | 23902 ft | 468 kts | 124° |
| 2026-05-05 11:04 | 28.72726 | 48.94869 | 24370 ft | 473 kts | 124° |
| 2026-05-05 11:04 | 28.71116 | 48.98157 | 24854 ft | 478 kts | 124° |
| 2026-05-05 11:05 | 28.69482 | 49.01484 | 25353 ft | 483 kts | 124° |
| 2026-05-05 11:05 | 28.67856 | 49.04790 | 25836 ft | 488 kts | 124° |
| 2026-05-05 11:05 | 28.66187 | 49.08177 | 26334 ft | 492 kts | 124° |
| 2026-05-05 11:05 | 28.64505 | 49.11590 | 26832 ft | 497 kts | 124° |
| 2026-05-05 11:06 | 28.62803 | 49.15038 | 27305 ft | 502 kts | 124° |
| 2026-05-05 11:06 | 28.61070 | 49.18502 | 27789 ft | 505 kts | 126° |
| 2026-05-05 11:06 | 28.59051 | 49.21748 | 28242 ft | 502 kts | 135° |
| 2026-05-05 11:06 | 28.56620 | 49.24576 | 28715 ft | 498 kts | 146° |
| 2026-05-05 11:07 | 28.53835 | 49.26859 | 29175 ft | 492 kts | 156° |
| 2026-05-05 11:07 | 28.50951 | 49.28924 | 29604 ft | 501 kts | 150° |
| 2026-05-05 11:07 | 28.48158 | 49.31426 | 30012 ft | 509 kts | 147° |
| 2026-05-05 11:07 | 28.45459 | 49.33984 | 30382 ft | 513 kts | 146° |
| 2026-05-05 11:08 | 28.42741 | 49.36621 | 30671 ft | 518 kts | 146° |
| 2026-05-05 11:08 | 28.37292 | 49.42008 | 30753 ft | 520 kts | 146° |
| 2026-05-05 11:09 | 28.31851 | 49.47425 | 30757 ft | 520 kts | 146° |
| 2026-05-05 11:09 | 28.26439 | 49.52798 | 30756 ft | 520 kts | 146° |
| 2026-05-05 11:10 | 28.20979 | 49.58172 | 30758 ft | 520 kts | 146° |
| 2026-05-05 11:10 | 28.15321 | 49.63217 | 30757 ft | 515 kts | 150° |
| 2026-05-05 11:11 | 28.09543 | 49.68006 | 30756 ft | 516 kts | 151° |
| 2026-05-05 11:11 | 28.03803 | 49.72826 | 30756 ft | 516 kts | 150° |
| 2026-05-05 11:12 | 27.97940 | 49.77471 | 30753 ft | 514 kts | 153° |
| 2026-05-05 11:12 | 27.92007 | 49.81973 | 30763 ft | 514 kts | 153° |
| 2026-05-05 11:13 | 27.86090 | 49.86504 | 30763 ft | 515 kts | 153° |
| 2026-05-05 11:13 | 27.80176 | 49.91081 | 30760 ft | 515 kts | 153° |
| 2026-05-05 11:14 | 27.74265 | 49.95661 | 30763 ft | 515 kts | 153° |
| 2026-05-05 11:14 | 27.68350 | 50.00233 | 30764 ft | 516 kts | 153° |
| 2026-05-05 11:15 | 27.62469 | 50.04770 | 30764 ft | 516 kts | 153° |
| 2026-05-05 11:15 | 27.56535 | 50.09344 | 30765 ft | 516 kts | 153° |
| 2026-05-05 11:16 | 27.50606 | 50.13907 | 30762 ft | 516 kts | 153° |
| 2026-05-05 11:16 | 27.44670 | 50.18470 | 30763 ft | 517 kts | 153° |
| 2026-05-05 11:17 | 27.38821 | 50.23108 | 30766 ft | 519 kts | 151° |
| 2026-05-05 11:17 | 27.32991 | 50.27893 | 30763 ft | 519 kts | 150° |
| 2026-05-05 11:18 | 27.27153 | 50.32662 | 30762 ft | 519 kts | 151° |
| 2026-05-05 11:18 | 27.21305 | 50.37408 | 30763 ft | 519 kts | 151° |
| 2026-05-05 11:19 | 27.15441 | 50.42133 | 30762 ft | 519 kts | 151° |
| 2026-05-05 11:19 | 27.09622 | 50.46816 | 30763 ft | 519 kts | 151° |
| 2026-05-05 11:20 | 27.03751 | 50.51541 | 30762 ft | 519 kts | 151° |
| 2026-05-05 11:20 | 26.99433 | 50.55021 | 30761 ft | 519 kts | 151° |
| 2026-05-05 11:32 | 26.97709 | 50.56407 | 30755 ft | 519 kts | 151° |
| 2026-05-05 11:33 | 26.91995 | 50.61420 | 30758 ft | 524 kts | 146° |
| 2026-05-05 11:33 | 26.86471 | 50.66767 | 30758 ft | 525 kts | 145° |
| 2026-05-05 11:34 | 26.80971 | 50.72041 | 30763 ft | 524 kts | 146° |
| 2026-05-05 11:34 | 26.75401 | 50.77272 | 30761 ft | 524 kts | 146° |
| 2026-05-05 11:35 | 26.69799 | 50.82488 | 30761 ft | 524 kts | 146° |
| 2026-05-05 11:35 | 26.64187 | 50.87702 | 30764 ft | 524 kts | 146° |
| 2026-05-05 11:36 | 26.58593 | 50.92897 | 30762 ft | 524 kts | 146° |
| 2026-05-05 11:36 | 26.53022 | 50.98067 | 30768 ft | 524 kts | 146° |
| 2026-05-05 11:37 | 26.47424 | 51.03255 | 30764 ft | 523 kts | 146° |
| 2026-05-05 11:37 | 26.41824 | 51.08439 | 30742 ft | 522 kts | 146° |
| 2026-05-05 11:37 | 26.39003 | 51.11045 | 30521 ft | 530 kts | 146° |
| 2026-05-05 11:38 | 26.36144 | 51.13681 | 30232 ft | 533 kts | 146° |
| 2026-05-05 11:38 | 26.33296 | 51.16311 | 29503 ft | 531 kts | 146° |
| 2026-05-05 11:38 | 26.30468 | 51.18929 | 28946 ft | 529 kts | 145° |
| 2026-05-05 11:38 | 26.27667 | 51.21515 | 28175 ft | 527 kts | 145° |
| 2026-05-05 11:39 | 26.24847 | 51.24112 | 27334 ft | 526 kts | 144° |
| 2026-05-05 11:39 | 26.22040 | 51.26698 | 26635 ft | 522 kts | 144° |
| 2026-05-05 11:39 | 26.19256 | 51.29263 | 25979 ft | 517 kts | 143° |
| 2026-05-05 11:39 | 26.16496 | 51.31804 | 25365 ft | 512 kts | 143° |
| 2026-05-05 11:40 | 26.13772 | 51.34310 | 24760 ft | 506 kts | 143° |
| 2026-05-05 11:40 | 26.11072 | 51.36791 | 24173 ft | 501 kts | 142° |
| 2026-05-05 11:40 | 26.08396 | 51.39244 | 23597 ft | 495 kts | 143° |
| 2026-05-05 11:40 | 26.05624 | 51.41460 | 23009 ft | 487 kts | 148° |
| 2026-05-05 11:41 | 26.02789 | 51.43479 | 22350 ft | 481 kts | 149° |
| 2026-05-05 11:41 | 25.99962 | 51.45471 | 21602 ft | 478 kts | 149° |
| 2026-05-05 11:41 | 25.97173 | 51.47440 | 20949 ft | 473 kts | 149° |
| 2026-05-05 11:41 | 25.93318 | 51.50165 | 20098 ft | 465 kts | 149° |
| 2026-05-05 11:42 | 25.87846 | 51.54033 | 18893 ft | 454 kts | 149° |
| 2026-05-05 11:42 | 25.82660 | 51.57696 | 17680 ft | 444 kts | 149° |
| 2026-05-05 11:42 | 25.77515 | 51.61329 | 16458 ft | 433 kts | 148° |
| 2026-05-05 11:42 | 25.72468 | 51.64888 | 15276 ft | 423 kts | 148° |
| 2026-05-05 11:43 | 25.67553 | 51.68351 | 14110 ft | 416 kts | 148° |
| 2026-05-05 11:43 | 25.62715 | 51.71757 | 12902 ft | 409 kts | 148° |
| 2026-05-05 11:43 | 25.57996 | 51.75076 | 11994 ft | 393 kts | 148° |
| 2026-05-05 11:43 | 25.53441 | 51.78276 | 10982 ft | 383 kts | 148° |
| 2026-05-05 11:44 | 25.48692 | 51.80103 | 10747 ft | 348 kts | 182° |
| 2026-05-05 11:44 | 25.44391 | 51.78496 | 10465 ft | 316 kts | 212° |
| 2026-05-05 11:44 | 25.40758 | 51.76166 | 10188 ft | 295 kts | 212° |
| 2026-05-05 11:44 | 25.37220 | 51.73911 | 9685 ft | 297 kts | 212° |
| 2026-05-05 11:45 | 25.33637 | 51.71643 | 9045 ft | 301 kts | 212° |
| 2026-05-05 11:45 | 25.29613 | 51.70796 | 8320 ft | 302 kts | 165° |
| 2026-05-05 11:45 | 25.25704 | 51.72440 | 7647 ft | 300 kts | 157° |
| 2026-05-05 11:45 | 25.21861 | 51.74180 | 7003 ft | 297 kts | 158° |
| 2026-05-05 11:46 | 25.18058 | 51.75867 | 6345 ft | 293 kts | 158° |
| 2026-05-05 11:46 | 25.14333 | 51.77504 | 5918 ft | 278 kts | 158° |
| 2026-05-05 11:46 | 25.10874 | 51.79024 | 5587 ft | 261 kts | 158° |
| 2026-05-05 11:46 | 25.07431 | 51.79328 | 4972 ft | 256 kts | 206° |
| 2026-05-05 11:47 | 25.05614 | 51.76297 | 4354 ft | 244 kts | 271° |
| 2026-05-05 11:47 | 25.06982 | 51.73052 | 3796 ft | 238 kts | 312° |
| 2026-05-05 11:47 | 25.08406 | 51.69997 | 3601 ft | 216 kts | 284° |
| 2026-05-05 11:47 | 25.09906 | 51.67384 | 3350 ft | 205 kts | 335° |
| 2026-05-05 11:48 | 25.15258 | 51.65067 | 2995 ft | 207 kts | 338° |
| 2026-05-05 11:48 | 25.17941 | 51.63888 | 2993 ft | 207 kts | 338° |
| 2026-05-05 11:48 | 25.20610 | 51.62714 | 2992 ft | 207 kts | 339° |
| 2026-05-05 11:49 | 25.22803 | 51.61752 | 2994 ft | 207 kts | 338° |
| 2026-05-05 11:49 | 25.24146 | 51.61240 | 2813 ft | 207 kts | 352° |
| 2026-05-05 11:49 | 25.25568 | 51.61379 | 2696 ft | 207 kts | 21° |
| 2026-05-05 11:49 | 25.26710 | 51.62311 | 2461 ft | 209 kts | 52° |
| 2026-05-05 11:50 | 25.27157 | 51.63867 | 2054 ft | 220 kts | 90° |
| 2026-05-05 11:50 | 25.26688 | 51.65436 | 1910 ft | 216 kts | 124° |
| 2026-05-05 11:50 | 25.25504 | 51.66356 | 1780 ft | 204 kts | 159° |
| 2026-05-05 11:50 | 25.24212 | 51.66886 | 1639 ft | 193 kts | 161° |
| 2026-05-05 11:51 | 25.22958 | 51.67266 | 1481 ft | 183 kts | 168° |
| 2026-05-05 11:51 | 25.21758 | 51.67147 | 1337 ft | 170 kts | 209° |
| 2026-05-05 11:51 | 25.21066 | 51.66225 | 1273 ft | 149 kts | 257° |
| 2026-05-05 11:51 | 25.20794 | 51.65136 | 1200 ft | 147 kts | 259° |
| 2026-05-05 11:52 | 25.20756 | 51.64034 | 1013 ft | 146 kts | 280° |
| 2026-05-05 11:52 | 25.21076 | 51.62989 | 938 ft | 144 kts | 302° |
| 2026-05-05 11:52 | 25.21710 | 51.62118 | 766 ft | 147 kts | 320° |
| 2026-05-05 11:52 | 25.22586 | 51.61565 | 655 ft | 147 kts | 341° |
| 2026-05-05 11:53 | 25.23556 | 51.61272 | 473 ft | 144 kts | 349° |
| 2026-05-05 11:53 | 25.24525 | 51.60963 | 319 ft | 147 kts | 344° |
| 2026-05-05 11:53 | 25.25460 | 51.60567 | 91 ft | 143 kts | 342° |
| 2026-05-05 11:53 | 25.26365 | 51.60190 | 25 ft | 126 kts | 339° |
| 2026-05-05 11:54 | 25.26936 | 51.59935 | 21 ft | 46 kts | 338° |
| 2026-05-05 11:54 | 25.27142 | 51.59846 | 22 ft | 28 kts | 342° |
| 2026-05-05 11:54 | 25.27332 | 51.59829 | 23 ft | 26 kts | 7° |
| 2026-05-05 11:54 | 25.27403 | 51.59899 | 29 ft | 12 kts | 102° |
| 2026-05-05 11:55 | 25.27344 | 51.59957 | 30 ft | 12 kts | 157° |
| 2026-05-05 11:55 | 25.27259 | 51.59995 | 31 ft | 14 kts | 158° |
| 2026-05-05 11:55 | 25.27163 | 51.60037 | 29 ft | 15 kts | 158° |
| 2026-05-05 11:55 | 25.27059 | 51.60084 | 31 ft | 17 kts | 158° |
| 2026-05-05 11:56 | 25.26966 | 51.60126 | 28 ft | 15 kts | 158° |
| 2026-05-05 11:56 | 25.26906 | 51.60152 | 30 ft | 0 kts | 158° |
| 2026-05-05 11:56 | 25.26895 | 51.60157 | 30 ft | 3 kts | 158° |
| 2026-05-05 11:56 | 25.26862 | 51.60172 | 29 ft | 7 kts | 158° |
| 2026-05-05 11:57 | 25.26809 | 51.60195 | 29 ft | 10 kts | 158° |
| 2026-05-05 11:57 | 25.26738 | 51.60226 | 28 ft | 12 kts | 158° |
| 2026-05-05 11:57 | 25.26651 | 51.60265 | 29 ft | 15 kts | 158° |
| 2026-05-05 11:57 | 25.26550 | 51.60311 | 32 ft | 16 kts | 155° |
| 2026-05-05 11:58 | 25.26501 | 51.60411 | 27 ft | 16 kts | 120° |
| 2026-05-05 11:58 | 25.26411 | 51.60483 | 27 ft | 17 kts | 159° |
| 2026-05-05 11:58 | 25.26292 | 51.60530 | 28 ft | 19 kts | 159° |
| 2026-05-05 11:58 | 25.26172 | 51.60583 | 27 ft | 15 kts | 159° |
| 2026-05-05 11:59 | 25.26101 | 51.60644 | 28 ft | 14 kts | 118° |
| 2026-05-05 11:59 | 25.26110 | 51.60750 | 28 ft | 15 kts | 70° |
| 2026-05-05 11:59 | 25.26149 | 51.60853 | 28 ft | 12 kts | 68° |
| 2026-05-05 11:59 | 25.26168 | 51.60907 | 28 ft | 7 kts | 68° |
| 2026-05-05 12:00 | 25.26190 | 51.60965 | 28 ft | 9 kts | 68° |
| 2026-05-05 12:00 | 25.26189 | 51.61031 | 28 ft | 8 kts | 120° |
| 2026-05-05 12:00 | 25.26144 | 51.61048 | 28 ft | 0 kts | 159° |
| 2026-05-05 12:00 | 25.26141 | 51.61049 | 28 ft | 1 kts | 160° |
| 2026-05-05 12:01 | 25.26124 | 51.61056 | 28 ft | 4 kts | 159° |
| 2026-05-05 12:01 | 25.26118 | 51.61059 | 28 ft | 0 kts | 158° |